Kaliningrad, Russia
Current Conditions -  °F | °C
As of 10:00 PM on Sunday 25 Jan 2015 (Local Time) from UMKK Reporting Station
Overcast Overcast  
Wind Chill: 30°   Ceiling: 1600
Heat Index: 30°   Visibility: 4mi
Dew Point: 28°   Wind: 2mph
Humidity: 93%   Direction: 230°SW
Pressure: 30.18"   Gusts: NA
Location:  54.71°N, 20.5°E
Report Text: UMKK 252000Z 23001MPS 6000 OVC016 M01/M02 Q1022 R24/29//55NOSIG RMK QFE766/1021
Loading
Personal Weather Stations






























Interactive Weather Map New forecast layout! Learn more

10-Day Weather Forecast

Advertisements
Track Severe Weather on mobile